sensor_id;sensor_type;location;lat;lon;timestamp;pressure;altitude;pressure_sealevel;temperature;humidity
60212;BME280;46079;48.686;15.598;2022-12-07T00:01:33;99685.66;;;20.21;51.89
60212;BME280;46079;48.686;15.598;2022-12-07T00:04:00;99685.66;;;20.21;51.67
60212;BME280;46079;48.686;15.598;2022-12-07T00:06:31;99677.78;;;20.21;51.93
60212;BME280;46079;48.686;15.598;2022-12-07T00:08:56;99678.63;;;20.21;51.96
60212;BME280;46079;48.686;15.598;2022-12-07T00:11:23;99676.81;;;20.22;51.92
60212;BME280;46079;48.686;15.598;2022-12-07T00:13:57;99681.25;;;20.21;52.04
60212;BME280;46079;48.686;15.598;2022-12-07T00:16:26;99669.91;;;20.21;51.72
60212;BME280;46079;48.686;15.598;2022-12-07T00:18:52;99682.09;;;20.22;51.71
60212;BME280;46079;48.686;15.598;2022-12-07T00:21:23;99681.09;;;20.23;51.80
60212;BME280;46079;48.686;15.598;2022-12-07T00:23:51;99677.66;;;20.23;51.88
60212;BME280;46079;48.686;15.598;2022-12-07T00:28:51;99678.47;;;20.23;52.01
60212;BME280;46079;48.686;15.598;2022-12-07T00:31:19;99669.66;;;20.24;51.87
60212;BME280;46079;48.686;15.598;2022-12-07T00:33:46;99668.78;;;20.24;52.01
60212;BME280;46079;48.686;15.598;2022-12-07T00:36:14;99675.72;;;20.25;51.88
60212;BME280;46079;48.686;15.598;2022-12-07T00:38:40;99675.72;;;20.25;52.29
60212;BME280;46079;48.686;15.598;2022-12-07T00:41:10;99676.53;;;20.25;52.12
60212;BME280;46079;48.686;15.598;2022-12-07T00:43:37;99667.69;;;20.26;51.97
60212;BME280;46079;48.686;15.598;2022-12-07T00:46:03;99667.69;;;20.26;52.09
60212;BME280;46079;48.686;15.598;2022-12-07T00:48:28;99675.44;;;20.28;52.31
60212;BME280;46079;48.686;15.598;2022-12-07T00:50:54;99676.41;;;20.27;51.90
60212;BME280;46079;48.686;15.598;2022-12-07T00:53:20;99679.88;;;20.27;52.06
60212;BME280;46079;48.686;15.598;2022-12-07T00:55:46;99676.41;;;20.27;51.93
60212;BME280;46079;48.686;15.598;2022-12-07T00:58:12;99672.81;;;20.28;52.11
60212;BME280;46079;48.686;15.598;2022-12-07T01:00:39;99675.44;;;20.28;52.08
60212;BME280;46079;48.686;15.598;2022-12-07T01:03:06;99678.88;;;20.28;51.84
60212;BME280;46079;48.686;15.598;2022-12-07T01:05:31;99679.56;;;20.30;51.98
60212;BME280;46079;48.686;15.598;2022-12-07T01:07:57;99677.06;;;20.29;52.15
60212;BME280;46079;48.686;15.598;2022-12-07T01:10:26;99688.41;;;20.29;51.94
60212;BME280;46079;48.686;15.598;2022-12-07T01:12:52;99679.56;;;20.30;52.37
60212;BME280;46079;48.686;15.598;2022-12-07T01:15:17;99685.66;;;20.31;52.32
60212;BME280;46079;48.686;15.598;2022-12-07T01:17:43;99680.41;;;20.31;52.46
60212;BME280;46079;48.686;15.598;2022-12-07T01:20:09;99686.47;;;20.31;52.21
60212;BME280;46079;48.686;15.598;2022-12-07T01:22:39;99685.53;;;20.32;52.35
60212;BME280;46079;48.686;15.598;2022-12-07T01:25:06;99682.88;;;20.32;52.35
60212;BME280;46079;48.686;15.598;2022-12-07T01:27:32;99685.53;;;20.32;52.78
60212;BME280;46079;48.686;15.598;2022-12-07T01:29:58;99678.47;;;20.33;52.47
60212;BME280;46079;48.686;15.598;2022-12-07T01:32:23;99680.94;;;20.34;52.38
60212;BME280;46079;48.686;15.598;2022-12-07T01:34:49;99683.56;;;20.34;52.45
60212;BME280;46079;48.686;15.598;2022-12-07T01:37:14;99678.28;;;20.34;52.62
60212;BME280;46079;48.686;15.598;2022-12-07T01:39:40;99677.34;;;20.35;52.98
60212;BME280;46079;48.686;15.598;2022-12-07T01:42:09;99676.38;;;20.36;52.80
60212;BME280;46079;48.686;15.598;2022-12-07T01:47:40;99664.06;;;20.37;52.96
60212;BME280;46079;48.686;15.598;2022-12-07T01:50:06;99672.75;;;20.37;52.42
60212;BME280;46079;48.686;15.598;2022-12-07T01:52:33;99667.50;;;20.37;52.73
60212;BME280;46079;48.686;15.598;2022-12-07T01:55:04;99670.13;;;20.37;52.54
60212;BME280;46079;48.686;15.598;2022-12-07T01:57:33;99666.56;;;20.38;52.78
60212;BME280;46079;48.686;15.598;2022-12-07T02:00:00;99668.19;;;20.39;52.49
60212;BME280;46079;48.686;15.598;2022-12-07T02:02:29;99657.69;;;20.39;52.59
60212;BME280;46079;48.686;15.598;2022-12-07T02:04:59;99657.69;;;20.39;52.66
60212;BME280;46079;48.686;15.598;2022-12-07T02:07:26;99655.88;;;20.40;52.47
60212;BME280;46079;48.686;15.598;2022-12-07T02:09:53;99651.47;;;20.40;52.39
60212;BME280;46079;48.686;15.598;2022-12-07T02:12:19;99654.09;;;20.40;52.57
60212;BME280;46079;48.686;15.598;2022-12-07T02:14:46;99650.50;;;20.41;52.59
60212;BME280;46079;48.686;15.598;2022-12-07T02:27:47;99645.94;;;20.43;52.43
60212;BME280;46079;48.686;15.598;2022-12-07T02:30:20;99646.75;;;20.44;52.72
60212;BME280;46079;48.686;15.598;2022-12-07T02:33:06;99644.94;;;20.44;52.59
60212;BME280;46079;48.686;15.598;2022-12-07T02:35:40;99655.47;;;20.44;52.66
60212;BME280;46079;48.686;15.598;2022-12-07T02:38:26;99644.81;;;20.46;52.44
60212;BME280;46079;48.686;15.598;2022-12-07T02:41:02;99649.22;;;20.46;52.56
60212;BME280;46079;48.686;15.598;2022-12-07T02:43:35;99650.91;;;20.47;52.55
60212;BME280;46079;48.686;15.598;2022-12-07T02:46:08;99647.44;;;20.46;52.81
60212;BME280;46079;48.686;15.598;2022-12-07T02:48:35;99653.53;;;20.47;53.21
60212;BME280;46079;48.686;15.598;2022-12-07T02:51:02;99659.59;;;20.47;53.06
60212;BME280;46079;48.686;15.598;2022-12-07T02:53:40;99655.16;;;20.48;52.87
60212;BME280;46079;48.686;15.598;2022-12-07T02:59:16;99653.34;;;20.48;52.82
60212;BME280;46079;48.686;15.598;2022-12-07T03:01:59;99654.22;;;20.49;53.14
60212;BME280;46079;48.686;15.598;2022-12-07T03:07:01;99662.91;;;20.49;52.74
60212;BME280;46079;48.686;15.598;2022-12-07T03:09:46;99656.69;;;20.50;53.05
60212;BME280;46079;48.686;15.598;2022-12-07T03:12:27;99652.13;;;20.52;52.76
60212;BME280;46079;48.686;15.598;2022-12-07T03:15:02;99660.13;;;20.51;52.86
60212;BME280;46079;48.686;15.598;2022-12-07T03:17:32;99662.63;;;20.52;52.55
60212;BME280;46079;48.686;15.598;2022-12-07T03:20:02;99661.81;;;20.52;52.80
60212;BME280;46079;48.686;15.598;2022-12-07T03:22:31;99657.38;;;20.52;52.96
60212;BME280;46079;48.686;15.598;2022-12-07T03:25:03;99661.81;;;20.52;52.87
60212;BME280;46079;48.686;15.598;2022-12-07T03:27:44;99659.88;;;20.54;52.97
60212;BME280;46079;48.686;15.598;2022-12-07T03:30:24;99653.78;;;20.53;52.75
60212;BME280;46079;48.686;15.598;2022-12-07T03:32:59;99660.81;;;20.53;52.99
60212;BME280;46079;48.686;15.598;2022-12-07T03:35:47;99649.34;;;20.54;53.11
60212;BME280;46079;48.686;15.598;2022-12-07T03:38:30;99660.72;;;20.54;53.09
60212;BME280;46079;48.686;15.598;2022-12-07T03:43:31;99665.97;;;20.54;52.70
60212;BME280;46079;48.686;15.598;2022-12-07T03:48:54;99666.78;;;20.55;52.94
60212;BME280;46079;48.686;15.598;2022-12-07T03:51:28;99659.59;;;20.57;52.87
60212;BME280;46079;48.686;15.598;2022-12-07T03:54:23;99658.91;;;20.55;52.91
60212;BME280;46079;48.686;15.598;2022-12-07T03:56:50;99663.06;;;20.57;52.87
60212;BME280;46079;48.686;15.598;2022-12-07T03:59:17;99670.13;;;20.57;52.59
60212;BME280;46079;48.686;15.598;2022-12-07T04:01:44;99664.84;;;20.57;52.69
60212;BME280;46079;48.686;15.598;2022-12-07T04:04:11;99667.47;;;20.57;52.94
60212;BME280;46079;48.686;15.598;2022-12-07T04:06:36;99670.94;;;20.57;52.86
60212;BME280;46079;48.686;15.598;2022-12-07T04:09:02;99671.75;;;20.58;52.64
60212;BME280;46079;48.686;15.598;2022-12-07T04:11:28;99672.56;;;20.58;52.77
60212;BME280;46079;48.686;15.598;2022-12-07T04:13:53;99674.38;;;20.58;52.71
60212;BME280;46079;48.686;15.598;2022-12-07T04:16:37;99672.56;;;20.58;52.72
60212;BME280;46079;48.686;15.598;2022-12-07T04:19:03;99677.84;;;20.58;52.63
60212;BME280;46079;48.686;15.598;2022-12-07T04:21:28;99669.13;;;20.58;52.76
60212;BME280;46079;48.686;15.598;2022-12-07T04:23:53;99672.56;;;20.58;52.53
60212;BME280;46079;48.686;15.598;2022-12-07T04:26:19;99680.47;;;20.58;52.46
60212;BME280;46079;48.686;15.598;2022-12-07T04:28:44;99678.66;;;20.59;52.62
60212;BME280;46079;48.686;15.598;2022-12-07T04:31:10;99681.28;;;20.59;52.66
60212;BME280;46079;48.686;15.598;2022-12-07T04:33:35;99671.75;;;20.58;52.68
60212;BME280;46079;48.686;15.598;2022-12-07T04:36:01;99673.41;;;20.59;52.46
60212;BME280;46079;48.686;15.598;2022-12-07T04:38:27;99675.22;;;20.58;52.65
60212;BME280;46079;48.686;15.598;2022-12-07T04:40:52;99674.22;;;20.59;52.64
60212;BME280;46079;48.686;15.598;2022-12-07T04:43:18;99677.69;;;20.60;52.66
60212;BME280;46079;48.686;15.598;2022-12-07T04:45:49;99684.72;;;20.59;52.56
60212;BME280;46079;48.686;15.598;2022-12-07T04:48:16;99667.19;;;20.60;52.73
60212;BME280;46079;48.686;15.598;2022-12-07T04:50:41;99680.31;;;20.60;52.73
60212;BME280;46079;48.686;15.598;2022-12-07T04:53:07;99677.69;;;20.60;52.53
60212;BME280;46079;48.686;15.598;2022-12-07T04:55:32;99678.66;;;20.59;52.70
60212;BME280;46079;48.686;15.598;2022-12-07T04:57:57;99675.06;;;20.60;52.79
60212;BME280;46079;48.686;15.598;2022-12-07T05:00:26;99671.59;;;20.59;52.59
60212;BME280;46079;48.686;15.598;2022-12-07T05:02:51;99675.06;;;20.60;52.57
60212;BME280;46079;48.686;15.598;2022-12-07T05:05:17;99671.59;;;20.59;52.53
60212;BME280;46079;48.686;15.598;2022-12-07T05:07:42;99663.72;;;20.59;52.59
60212;BME280;46079;48.686;15.598;2022-12-07T05:10:08;99660.25;;;20.59;52.53
60212;BME280;46079;48.686;15.598;2022-12-07T05:12:33;99663.72;;;20.59;52.90
60212;BME280;46079;48.686;15.598;2022-12-07T05:14:59;99666.22;;;20.61;52.92
60212;BME280;46079;48.686;15.598;2022-12-07T05:17:24;99671.47;;;20.61;53.10
60212;BME280;46079;48.686;15.598;2022-12-07T05:19:49;99666.34;;;20.59;52.92
60212;BME280;46079;48.686;15.598;2022-12-07T05:22:15;99669.81;;;20.60;53.06
60212;BME280;46079;48.686;15.598;2022-12-07T05:24:40;99670.78;;;20.59;52.94
60212;BME280;46079;48.686;15.598;2022-12-07T05:27:06;99664.56;;;20.60;52.79
60212;BME280;46079;48.686;15.598;2022-12-07T05:29:31;99666.22;;;20.61;52.98
60212;BME280;46079;48.686;15.598;2022-12-07T05:31:57;99676.72;;;20.61;52.87
60212;BME280;46079;48.686;15.598;2022-12-07T05:34:22;99669.81;;;20.60;52.75
60212;BME280;46079;48.686;15.598;2022-12-07T05:36:48;99665.38;;;20.60;52.90
60212;BME280;46079;48.686;15.598;2022-12-07T05:39:14;99660.94;;;20.61;52.85
60212;BME280;46079;48.686;15.598;2022-12-07T05:41:39;99663.56;;;20.61;53.06
60212;BME280;46079;48.686;15.598;2022-12-07T05:44:23;99671.47;;;20.61;52.92
60212;BME280;46079;48.686;15.598;2022-12-07T05:46:49;99667.19;;;20.60;52.85
60212;BME280;46079;48.686;15.598;2022-12-07T05:49:14;99668.00;;;20.60;52.91
60212;BME280;46079;48.686;15.598;2022-12-07T05:51:40;99669.81;;;20.60;52.87
60212;BME280;46079;48.686;15.598;2022-12-07T05:54:05;99669.81;;;20.60;53.12
60212;BME280;46079;48.686;15.598;2022-12-07T05:56:31;99674.22;;;20.59;53.01
60212;BME280;46079;48.686;15.598;2022-12-07T05:58:57;99675.91;;;20.60;53.04
60212;BME280;46079;48.686;15.598;2022-12-07T06:01:41;99680.31;;;20.60;53.11
60212;BME280;46079;48.686;15.598;2022-12-07T06:04:06;99680.31;;;20.60;52.86
60212;BME280;46079;48.686;15.598;2022-12-07T06:06:32;99675.06;;;20.60;52.86
60212;BME280;46079;48.686;15.598;2022-12-07T06:08:58;99682.97;;;20.60;52.84
60212;BME280;46079;48.686;15.598;2022-12-07T06:11:23;99680.31;;;20.60;52.91
60212;BME280;46079;48.686;15.598;2022-12-07T06:14:07;99686.41;;;20.60;53.07
60212;BME280;46079;48.686;15.598;2022-12-07T06:16:32;99677.84;;;20.58;52.96
60212;BME280;46079;48.686;15.598;2022-12-07T06:18:58;99676.03;;;20.59;53.13
60212;BME280;46079;48.686;15.598;2022-12-07T06:21:23;99678.66;;;20.59;52.87
60212;BME280;46079;48.686;15.598;2022-12-07T06:23:51;99679.47;;;20.59;53.01
60212;BME280;46079;48.686;15.598;2022-12-07T06:26:16;99683.91;;;20.59;52.74
60212;BME280;46079;48.686;15.598;2022-12-07T06:28:41;99676.03;;;20.59;53.22
60212;BME280;46079;48.686;15.598;2022-12-07T06:31:07;99678.66;;;20.59;53.04
60212;BME280;46079;48.686;15.598;2022-12-07T06:33:33;99678.66;;;20.59;53.27
60212;BME280;46079;48.686;15.598;2022-12-07T06:35:58;99673.41;;;20.59;53.16
60212;BME280;46079;48.686;15.598;2022-12-07T06:38:24;99684.91;;;20.58;53.27
60212;BME280;46079;48.686;15.598;2022-12-07T06:40:50;99676.03;;;20.59;53.32
60212;BME280;46079;48.686;15.598;2022-12-07T06:43:15;99674.38;;;20.58;53.30
60212;BME280;46079;48.686;15.598;2022-12-07T06:45:43;99683.09;;;20.58;53.33
60212;BME280;46079;48.686;15.598;2022-12-07T06:48:09;99679.63;;;20.58;53.45
60212;BME280;46079;48.686;15.598;2022-12-07T06:50:34;99681.28;;;20.59;52.86
60212;BME280;46079;48.686;15.598;2022-12-07T06:53:00;99674.09;;;20.61;53.11
60212;BME280;46079;48.686;15.598;2022-12-07T06:55:25;99691.38;;;20.63;52.97
60212;BME280;46079;48.686;15.598;2022-12-07T06:57:50;99686.66;;;20.67;53.23
60212;BME280;46079;48.686;15.598;2022-12-07T07:00:16;99689.97;;;20.69;52.94
60212;BME280;46079;48.686;15.598;2022-12-07T07:02:42;99689.84;;;20.71;52.85
60212;BME280;46079;48.686;15.598;2022-12-07T07:05:08;99686.34;;;20.70;51.31
60212;BME280;46079;48.686;15.598;2022-12-07T07:07:33;99691.59;;;20.70;50.92
60212;BME280;46079;48.686;15.598;2022-12-07T07:09:58;99684.56;;;20.71;50.93
60212;BME280;46079;48.686;15.598;2022-12-07T07:12:24;99689.97;;;20.69;50.86
60212;BME280;46079;48.686;15.598;2022-12-07T07:14:52;99703.09;;;20.69;50.91
60212;BME280;46079;48.686;15.598;2022-12-07T07:17:18;99692.59;;;20.69;51.06
60212;BME280;46079;48.686;15.598;2022-12-07T07:19:43;99690.78;;;20.70;50.91
60212;BME280;46079;48.686;15.598;2022-12-07T07:22:09;99693.56;;;20.68;50.78
60212;BME280;46079;48.686;15.598;2022-12-07T07:24:34;99698.81;;;20.68;50.45
60212;BME280;46079;48.686;15.598;2022-12-07T07:27:00;99701.47;;;20.68;50.39
60212;BME280;46079;48.686;15.598;2022-12-07T07:29:25;99704.91;;;20.69;50.77
60212;BME280;46079;48.686;15.598;2022-12-07T07:31:51;99703.22;;;20.68;50.55
60212;BME280;46079;48.686;15.598;2022-12-07T07:34:16;99701.59;;;20.67;50.07
60212;BME280;46079;48.686;15.598;2022-12-07T07:36:41;99704.50;;;20.63;50.49
60212;BME280;46079;48.686;15.598;2022-12-07T07:39:07;99706.31;;;20.63;50.29
60212;BME280;46079;48.686;15.598;2022-12-07T07:41:32;99705.63;;;20.61;50.02
60212;BME280;46079;48.686;15.598;2022-12-07T07:43:58;99712.69;;;20.60;50.23
60212;BME280;46079;48.686;15.598;2022-12-07T07:46:26;99711.00;;;20.59;49.67
60212;BME280;46079;48.686;15.598;2022-12-07T07:48:51;99711.16;;;20.58;49.43
60212;BME280;46079;48.686;15.598;2022-12-07T07:51:17;99713.09;;;20.56;48.95
60212;BME280;46079;48.686;15.598;2022-12-07T07:53:42;99715.72;;;20.56;48.95
60212;BME280;46079;48.686;15.598;2022-12-07T07:56:17;99708.84;;;20.55;48.96
60212;BME280;46079;48.686;15.598;2022-12-07T07:58:43;99710.75;;;20.53;48.80
60212;BME280;46079;48.686;15.598;2022-12-07T08:01:08;99712.41;;;20.54;48.56
60212;BME280;46079;48.686;15.598;2022-12-07T08:03:34;99710.75;;;20.53;48.76
60212;BME280;46079;48.686;15.598;2022-12-07T08:06:02;99703.16;;;20.50;48.78
60212;BME280;46079;48.686;15.598;2022-12-07T08:08:28;99701.50;;;20.49;49.29
60212;BME280;46079;48.686;15.598;2022-12-07T08:10:53;99708.41;;;20.50;48.92
60212;BME280;46079;48.686;15.598;2022-12-07T08:13:18;99714.63;;;20.49;48.43
60212;BME280;46079;48.686;15.598;2022-12-07T08:15:46;99711.31;;;20.47;48.59
60212;BME280;46079;48.686;15.598;2022-12-07T08:18:13;99719.19;;;20.47;48.80
60212;BME280;46079;48.686;15.598;2022-12-07T08:20:39;99720.03;;;20.47;48.75
60212;BME280;46079;48.686;15.598;2022-12-07T08:23:06;99718.38;;;20.46;48.59
60212;BME280;46079;48.686;15.598;2022-12-07T08:25:33;99717.53;;;20.46;48.47
60212;BME280;46079;48.686;15.598;2022-12-07T08:27:59;99729.03;;;20.44;48.45
60212;BME280;46079;48.686;15.598;2022-12-07T08:30:26;99723.75;;;20.44;48.75
60212;BME280;46079;48.686;15.598;2022-12-07T08:32:51;99723.75;;;20.44;48.72
60212;BME280;46079;48.686;15.598;2022-12-07T08:35:17;99724.06;;;20.41;48.33
60212;BME280;46079;48.686;15.598;2022-12-07T08:37:43;99728.47;;;20.41;48.74
60212;BME280;46079;48.686;15.598;2022-12-07T08:40:10;99727.66;;;20.40;48.68
60212;BME280;46079;48.686;15.598;2022-12-07T08:42:36;99731.25;;;20.39;48.50
60212;BME280;46079;48.686;15.598;2022-12-07T08:45:10;99732.91;;;20.40;48.49
60212;BME280;46079;48.686;15.598;2022-12-07T08:47:40;99735.66;;;20.39;48.73
60212;BME280;46079;48.686;15.598;2022-12-07T08:50:07;99738.16;;;20.40;48.61
60212;BME280;46079;48.686;15.598;2022-12-07T08:52:34;99739.28;;;20.38;48.67
60212;BME280;46079;48.686;15.598;2022-12-07T08:55:00;99750.63;;;20.38;48.65
60212;BME280;46079;48.686;15.598;2022-12-07T08:57:27;99751.56;;;20.37;48.60
60212;BME280;46079;48.686;15.598;2022-12-07T08:59:54;99755.16;;;20.36;48.47
60212;BME280;46079;48.686;15.598;2022-12-07T09:02:19;99751.72;;;20.36;48.66
60212;BME280;46079;48.686;15.598;2022-12-07T09:04:45;99753.53;;;20.35;48.71
60212;BME280;46079;48.686;15.598;2022-12-07T09:07:10;99743.16;;;20.34;48.91
60212;BME280;46079;48.686;15.598;2022-12-07T09:09:36;99743.97;;;20.34;48.67
60212;BME280;46079;48.686;15.598;2022-12-07T09:12:02;99741.34;;;20.34;48.76
60212;BME280;46079;48.686;15.598;2022-12-07T09:14:27;99743.97;;;20.34;48.89
60212;BME280;46079;48.686;15.598;2022-12-07T09:16:53;99738.72;;;20.34;49.08
60212;BME280;46079;48.686;15.598;2022-12-07T09:19:18;99731.81;;;20.33;48.91
60212;BME280;46079;48.686;15.598;2022-12-07T09:21:44;99738.06;;;20.32;48.88
60212;BME280;46079;48.686;15.598;2022-12-07T09:24:11;99732.78;;;20.32;48.75
60212;BME280;46079;48.686;15.598;2022-12-07T09:26:37;99735.44;;;20.32;49.07
60212;BME280;46079;48.686;15.598;2022-12-07T09:29:04;99743.31;;;20.32;48.83
60212;BME280;46079;48.686;15.598;2022-12-07T09:31:30;99733.75;;;20.31;48.81
60212;BME280;46079;48.686;15.598;2022-12-07T09:34:00;99732.78;;;20.32;48.83
60212;BME280;46079;48.686;15.598;2022-12-07T09:36:27;99732.78;;;20.32;48.71
60212;BME280;46079;48.686;15.598;2022-12-07T09:38:52;99722.28;;;20.32;48.97
60212;BME280;46079;48.686;15.598;2022-12-07T09:41:18;99722.13;;;20.34;48.97
60212;BME280;46079;48.686;15.598;2022-12-07T09:43:45;99726.56;;;20.33;48.80
60212;BME280;46079;48.686;15.598;2022-12-07T09:46:14;99723.94;;;20.33;48.89
60212;BME280;46079;48.686;15.598;2022-12-07T09:48:41;99720.31;;;20.34;48.67
60212;BME280;46079;48.686;15.598;2022-12-07T09:51:17;99722.94;;;20.34;48.95
60212;BME280;46079;48.686;15.598;2022-12-07T09:53:44;99716.75;;;20.35;48.78
60212;BME280;46079;48.686;15.598;2022-12-07T09:56:15;99716.75;;;20.35;48.68
60212;BME280;46079;48.686;15.598;2022-12-07T09:58:41;99712.44;;;20.34;48.88
60212;BME280;46079;48.686;15.598;2022-12-07T10:03:33;99708.00;;;20.35;48.66
60212;BME280;46079;48.686;15.598;2022-12-07T10:06:00;99709.00;;;20.34;48.66
60212;BME280;46079;48.686;15.598;2022-12-07T10:08:25;99708.88;;;20.35;48.75
60212;BME280;46079;48.686;15.598;2022-12-07T10:10:55;99709.81;;;20.34;48.61
60212;BME280;46079;48.686;15.598;2022-12-07T10:15:59;99710.81;;;20.33;48.32
60212;BME280;46079;48.686;15.598;2022-12-07T10:18:31;99694.22;;;20.33;48.73
60212;BME280;46079;48.686;15.598;2022-12-07T10:21:05;99703.75;;;20.34;48.34
60212;BME280;46079;48.686;15.598;2022-12-07T10:23:33;99700.28;;;20.33;48.53
60212;BME280;46079;48.686;15.598;2022-12-07T10:25:59;99692.53;;;20.32;48.58
60212;BME280;46079;48.686;15.598;2022-12-07T10:28:34;99700.41;;;20.32;48.41
60212;BME280;46079;48.686;15.598;2022-12-07T10:31:02;99698.66;;;20.32;48.40
60212;BME280;46079;48.686;15.598;2022-12-07T10:33:55;99692.53;;;20.32;48.55
60212;BME280;46079;48.686;15.598;2022-12-07T10:39:13;99680.53;;;20.29;48.44
60212;BME280;46079;48.686;15.598;2022-12-07T10:41:59;99674.31;;;20.30;48.36
60212;BME280;46079;48.686;15.598;2022-12-07T10:44:30;99680.53;;;20.29;48.43
60212;BME280;46079;48.686;15.598;2022-12-07T10:52:45;99684.94;;;20.29;48.31
60212;BME280;46079;48.686;15.598;2022-12-07T11:00:25;99679.03;;;20.27;48.43
60212;BME280;46079;48.686;15.598;2022-12-07T11:11:16;99682.47;;;20.27;48.23
60212;BME280;46079;48.686;15.598;2022-12-07T11:14:13;99677.22;;;20.27;48.14
60212;BME280;46079;48.686;15.598;2022-12-07T11:17:30;99669.34;;;20.27;48.08
60212;BME280;46079;48.686;15.598;2022-12-07T11:20:12;99658.16;;;20.25;48.09
60212;BME280;46079;48.686;15.598;2022-12-07T11:25:39;99662.44;;;20.26;48.08
60212;BME280;46079;48.686;15.598;2022-12-07T11:31:04;99657.16;;;20.26;48.09
60212;BME280;46079;48.686;15.598;2022-12-07T11:36:24;99652.91;;;20.25;47.79
60212;BME280;46079;48.686;15.598;2022-12-07T11:38:57;99663.41;;;20.25;48.06
60212;BME280;46079;48.686;15.598;2022-12-07T11:41:27;99655.53;;;20.25;48.11
60212;BME280;46079;48.686;15.598;2022-12-07T11:46:27;99664.53;;;20.23;48.06
60212;BME280;46079;48.686;15.598;2022-12-07T11:51:59;99663.69;;;20.22;48.02
60212;BME280;46079;48.686;15.598;2022-12-07T11:54:31;99666.44;;;20.20;48.28
60212;BME280;46079;48.686;15.598;2022-12-07T11:57:02;99660.38;;;20.20;47.91
60212;BME280;46079;48.686;15.598;2022-12-07T11:59:45;99657.75;;;20.20;47.86
60212;BME280;46079;48.686;15.598;2022-12-07T12:02:28;99658.72;;;20.19;47.91
60212;BME280;46079;48.686;15.598;2022-12-07T12:05:21;99652.50;;;20.20;47.94
60212;BME280;46079;48.686;15.598;2022-12-07T12:07:52;99651.69;;;20.19;47.98
60212;BME280;46079;48.686;15.598;2022-12-07T12:16:45;99656.09;;;20.19;47.81
60212;BME280;46079;48.686;15.598;2022-12-07T12:19:21;99653.63;;;20.17;47.93
60212;BME280;46079;48.686;15.598;2022-12-07T12:21:56;99650.03;;;20.18;48.04
60212;BME280;46079;48.686;15.598;2022-12-07T12:24:25;99643.94;;;20.18;48.00
60212;BME280;46079;48.686;15.598;2022-12-07T12:27:01;99642.28;;;20.17;47.97
60212;BME280;46079;48.686;15.598;2022-12-07T12:29:37;99640.63;;;20.16;48.04
60212;BME280;46079;48.686;15.598;2022-12-07T12:42:57;99634.53;;;20.15;48.03
60212;BME280;46079;48.686;15.598;2022-12-07T12:45:24;99627.50;;;20.16;48.08
60212;BME280;46079;48.686;15.598;2022-12-07T12:50:25;99632.06;;;20.14;48.18
60212;BME280;46079;48.686;15.598;2022-12-07T12:53:03;99632.91;;;20.14;48.31
60212;BME280;46079;48.686;15.598;2022-12-07T12:55:45;99626.00;;;20.13;48.06
60212;BME280;46079;48.686;15.598;2022-12-07T13:00:43;99625.16;;;20.13;48.12
60212;BME280;46079;48.686;15.598;2022-12-07T13:03:22;99622.50;;;20.13;48.00
60212;BME280;46079;48.686;15.598;2022-12-07T13:08:45;99627.78;;;20.13;48.28
60212;BME280;46079;48.686;15.598;2022-12-07T13:11:34;99625.31;;;20.11;47.94
60212;BME280;46079;48.686;15.598;2022-12-07T13:17:08;99633.19;;;20.11;48.27
60212;BME280;46079;48.686;15.598;2022-12-07T13:27:24;99629.72;;;20.11;48.07
60212;BME280;46079;48.686;15.598;2022-12-07T13:29:51;99630.69;;;20.10;48.08
60212;BME280;46079;48.686;15.598;2022-12-07T13:32:28;99628.91;;;20.10;48.19
60212;BME280;46079;48.686;15.598;2022-12-07T13:34:55;99630.69;;;20.10;48.09
60212;BME280;46079;48.686;15.598;2022-12-07T13:37:28;99626.28;;;20.10;47.78
60212;BME280;46079;48.686;15.598;2022-12-07T13:39:56;99641.19;;;20.10;48.10
60212;BME280;46079;48.686;15.598;2022-12-07T13:42:24;99635.94;;;20.10;48.13
60212;BME280;46079;48.686;15.598;2022-12-07T13:44:50;99624.63;;;20.09;48.06
60212;BME280;46079;48.686;15.598;2022-12-07T13:47:48;99630.69;;;20.10;47.96
60212;BME280;46079;48.686;15.598;2022-12-07T13:50:31;99631.66;;;20.09;47.87
60212;BME280;46079;48.686;15.598;2022-12-07T13:53:01;99629.88;;;20.09;47.87
60212;BME280;46079;48.686;15.598;2022-12-07T13:55:29;99637.75;;;20.09;48.01
60212;BME280;46079;48.686;15.598;2022-12-07T13:57:55;99634.41;;;20.07;47.83
60212;BME280;46079;48.686;15.598;2022-12-07T14:00:24;99634.28;;;20.09;47.93
60212;BME280;46079;48.686;15.598;2022-12-07T14:05:41;99636.91;;;20.09;47.81
60212;BME280;46079;48.686;15.598;2022-12-07T14:13:30;99637.91;;;20.08;47.96
60212;BME280;46079;48.686;15.598;2022-12-07T14:15:56;99645.78;;;20.08;47.85
60212;BME280;46079;48.686;15.598;2022-12-07T14:27:21;99641.47;;;20.07;48.30
60212;BME280;46079;48.686;15.598;2022-12-07T14:29:48;99646.72;;;20.07;48.26
60212;BME280;46079;48.686;15.598;2022-12-07T14:35:11;99655.44;;;20.07;48.31
60212;BME280;46079;48.686;15.598;2022-12-07T14:37:39;99650.19;;;20.07;48.15
60212;BME280;46079;48.686;15.598;2022-12-07T14:40:06;99651.97;;;20.07;48.03
60212;BME280;46079;48.686;15.598;2022-12-07T14:42:33;99651.97;;;20.07;48.16
60212;BME280;46079;48.686;15.598;2022-12-07T14:44:59;99652.13;;;20.05;48.15
60212;BME280;46079;48.686;15.598;2022-12-07T14:47:26;99648.66;;;20.05;47.92
60212;BME280;46079;48.686;15.598;2022-12-07T14:49:52;99644.25;;;20.05;48.08
60212;BME280;46079;48.686;15.598;2022-12-07T14:52:24;99648.66;;;20.05;48.04
60212;BME280;46079;48.686;15.598;2022-12-07T14:54:51;99657.38;;;20.05;48.12
60212;BME280;46079;48.686;15.598;2022-12-07T14:57:17;99655.59;;;20.06;47.83
60212;BME280;46079;48.686;15.598;2022-12-07T14:59:42;99660.00;;;20.05;47.90
60212;BME280;46079;48.686;15.598;2022-12-07T15:02:11;99656.53;;;20.05;48.02
60212;BME280;46079;48.686;15.598;2022-12-07T15:04:37;99659.16;;;20.05;48.01